Time;durP1;ratioP1;P1;durP2;ratioP2;P2;SDS_P1;SDS_P2;PMS_P1;PMS_P2;Temp;Humidity;BMP_temperature;BMP_pressure;BME280_temperature;BME280_humidity;BME280_pressure;Samples;Min_cycle;Max_cycle;Signal;HPM_P1;HPM_P2
2023/12/01 00:02:28;;;;;;;46.80;24.52;;;;;;;-2.08;100.00;100204.34;6269335;22;20044;-91
2023/12/01 00:05:00;;;;;;;48.35;24.85;;;;;;;-2.51;100.00;100126.03;6245527;22;20030;-90
2023/12/01 00:07:25;;;;;;;;;;;;;;;-0.56;100.00;100437.34;6270612;22;20059;-91
2023/12/01 00:09:56;;;;;;;48.80;25.33;;;;;;;-0.63;100.00;100445.97;6245471;23;20309;-90
2023/12/01 00:12:22;;;;;;;48.08;23.10;;;;;;;-0.72;100.00;100441.09;6269266;22;20000;-88
2023/12/01 00:14:47;;;;;;;49.13;24.20;;;;;;;-1.96;100.00;100258.94;6243694;23;20385;-90
2023/12/01 00:17:18;;;;;;;48.72;24.27;;;;;;;-2.45;100.00;100173.13;6243575;23;20033;-89
2023/12/01 00:19:43;;;;;;;46.55;25.25;;;;;;;-0.83;100.00;100450.66;6244128;23;20004;-90
2023/12/01 00:22:09;;;;;;;50.75;25.17;;;;;;;-1.87;100.00;100275.59;6269405;22;20015;-89
2023/12/01 00:24:34;;;;;;;50.90;25.88;;;;;;;-1.37;100.00;100369.94;6267205;22;20334;-90
2023/12/01 00:27:00;;;;;;;46.53;23.63;;;;;;;-1.52;100.00;100336.44;6244135;22;20004;-89
2023/12/01 00:29:25;;;;;;;46.70;23.98;;;;;;;-2.12;100.00;100243.22;6244515;22;20408;-90
2023/12/01 00:31:53;;;;;;;46.15;23.55;;;;;;;-0.83;100.00;100459.09;6267957;22;20035;-90
2023/12/01 00:34:19;;;;;;;46.67;25.35;;;;;;;-2.51;100.00;100191.75;6244113;22;20000;-90
2023/12/01 00:36:54;;;;;;;48.45;23.83;;;;;;;-1.83;100.00;100290.72;6244296;22;20011;-90
2023/12/01 00:39:32;;;;;;;46.15;24.42;;;;;;;-0.72;100.00;100467.28;6242678;23;20008;-89
2023/12/01 00:41:57;;;;;;;47.30;23.17;;;;;;;-2.16;100.00;100218.06;6243288;23;20001;-89
2023/12/01 00:44:38;;;;;;;54.40;25.02;;;;;;;-1.00;100.00;100411.31;6244424;22;20015;-90
2023/12/01 00:47:07;;;;;;;45.47;23.85;;;;;;;-1.43;100.00;100348.09;6244110;22;20562;-90
2023/12/01 00:49:45;;;;;;;47.78;25.00;;;;;;;-1.37;100.00;100353.03;6242497;23;20365;-90
2023/12/01 00:52:23;;;;;;;45.13;23.33;;;;;;;-2.34;100.00;100188.91;6244270;22;20418;-90
2023/12/01 00:54:54;;;;;;;50.78;24.83;;;;;;;-1.73;100.00;100302.31;6242107;23;20000;-91
2023/12/01 00:57:19;;;;;;;;;;;;;;;-0.68;100.00;100460.47;6244386;22;20040;-89
2023/12/01 01:00:00;;;;;;;48.85;23.95;;;;;;;-1.98;100.00;100293.53;6244307;23;19995;-92
2023/12/01 01:02:26;;;;;;;47.25;23.40;;;;;;;-2.15;100.00;100278.72;6244462;22;20058;-89
2023/12/01 01:04:58;;;;;;;45.47;22.27;;;;;;;-1.97;100.00;100314.59;6244292;22;20083;-90
2023/12/01 01:07:32;;;;;;;44.75;23.65;;;;;;;-2.68;100.00;100201.34;6243855;22;20071;-89
2023/12/01 01:10:07;;;;;;;47.92;23.02;;;;;;;-2.69;100.00;100208.09;6243555;22;20008;-87
2023/12/01 01:12:33;;;;;;;49.60;23.90;;;;;;;-2.40;100.00;100264.88;6244243;22;20000;-88
2023/12/01 01:15:02;;;;;;;45.30;23.63;;;;;;;-1.46;100.00;100429.19;6245578;22;20011;-90
2023/12/01 01:17:38;;;;;;;48.95;23.63;;;;;;;-2.67;100.00;100236.69;6245225;23;20000;-89
2023/12/01 01:20:04;;;;;;;45.95;23.33;;;;;;;-1.82;100.00;100375.88;6198635;22;1121412;-89
2023/12/01 01:22:30;;;;;;;48.28;22.95;;;;;;;-1.13;100.00;100506.19;6245744;23;20031;-89
2023/12/01 01:24:55;;;;;;;51.70;24.52;;;;;;;-1.74;100.00;100401.06;6245918;23;20027;-89
2023/12/01 01:27:21;;;;;;;45.65;22.60;;;;;;;-1.20;100.00;100495.34;6246693;22;20000;-89
2023/12/01 01:29:46;;;;;;;47.85;22.80;;;;;;;-2.62;100.00;100277.06;6246938;22;20000;-89
2023/12/01 01:32:12;;;;;;;43.78;21.73;;;;;;;-2.47;100.00;100308.81;6245455;23;20371;-89
2023/12/01 01:34:38;;;;;;;47.95;22.48;;;;;;;-2.45;100.00;100297.84;6246961;22;20004;-89
2023/12/01 01:37:04;;;;;;;43.15;22.20;;;;;;;-1.26;100.00;100503.09;6245797;23;20000;-88
2023/12/01 01:39:30;;;;;;;44.20;22.33;;;;;;;-1.61;100.00;100447.22;6271126;22;20055;-89
2023/12/01 01:41:58;;;;;;;47.55;23.33;;;;;;;-1.87;100.00;100397.94;6269763;22;20012;-88
2023/12/01 01:44:24;;;;;;;45.22;22.50;;;;;;;-2.19;100.00;100347.06;6246839;23;20021;-88
2023/12/01 01:46:54;;;;;;;46.95;22.88;;;;;;;-1.96;100.00;100395.56;6246900;23;20008;-89
2023/12/01 01:49:40;;;;;;;50.80;23.88;;;;;;;-2.85;100.00;100232.00;6245355;23;20090;-89
2023/12/01 01:52:09;;;;;;;46.35;23.13;;;;;;;-2.90;100.00;100234.59;6246853;23;20131;-89
2023/12/01 02:00:27;;;;;;;52.97;26.17;;;;;;;-2.46;100.00;100315.53;6216387;23;20019;-90
2023/12/01 02:02:53;;;;;;;50.53;24.23;;;;;;;-2.72;100.00;100280.63;6215952;23;20005;-89
2023/12/01 02:05:27;;;;;;;52.63;24.80;;;;;;;-2.86;100.00;100247.16;6216114;23;19997;-87
2023/12/01 02:07:53;;;;;;;50.45;24.27;;;;;;;-2.84;100.00;100243.78;6189960;23;20051;-90
2023/12/01 02:10:18;;;;;;;52.22;25.98;;;;;;;-2.33;100.00;100337.22;6214705;23;20008;-90
2023/12/01 02:12:53;;;;;;;52.80;23.33;;;;;;;-2.89;100.00;100245.53;6216092;23;20001;-89
2023/12/01 02:15:18;;;;;;;51.45;24.42;;;;;;;-1.87;100.00;100420.72;6214411;23;20066;-91
2023/12/01 02:17:43;;;;;;;53.60;26.20;;;;;;;-1.21;100.00;100526.59;6215973;23;20004;-88
2023/12/01 02:20:14;;;;;;;49.83;23.65;;;;;;;-1.14;100.00;100518.91;6214389;23;20004;-89
2023/12/01 02:22:51;;;;;;;50.88;24.30;;;;;;;-2.64;100.00;100261.13;6215051;23;20012;-89
2023/12/01 02:25:25;;;;;;;54.55;25.27;;;;;;;-1.06;100.00;100524.66;6216230;23;20004;-90
2023/12/01 02:28:01;;;;;;;52.88;24.33;;;;;;;-2.57;100.00;100282.03;6216085;23;20005;-88
2023/12/01 02:30:26;;;;;;;46.03;22.88;;;;;;;-1.17;100.00;100528.25;6215688;23;19996;-89
2023/12/01 02:33:04;;;;;;;52.25;23.90;;;;;;;-2.80;100.00;100264.75;6216018;23;20012;-88
2023/12/01 02:35:38;;;;;;;50.80;24.17;;;;;;;-1.66;100.00;100459.13;6216207;23;20009;-89
2023/12/01 02:38:04;;;;;;;47.03;22.48;;;;;;;-2.43;100.00;100338.25;6215720;23;20005;-89
2023/12/01 02:40:32;;;;;;;49.80;23.70;;;;;;;-1.36;100.00;100521.84;6189527;23;20011;-89
2023/12/01 02:42:58;;;;;;;54.22;23.55;;;;;;;-3.06;100.00;100255.09;6215428;23;20004;-88
2023/12/01 02:45:23;;;;;;;53.15;24.75;;;;;;;-1.56;100.00;100508.72;6216478;23;20031;-89
2023/12/01 02:47:49;;;;;;;47.83;23.35;;;;;;;-2.06;100.00;100407.56;6214564;23;20488;-88
2023/12/01 02:50:18;;;;;;;50.22;23.70;;;;;;;-3.04;100.00;100243.28;6214083;23;20370;-89
2023/12/01 02:52:44;;;;;;;57.30;27.05;;;;;;;-2.14;100.00;100395.91;6215714;23;20008;-88
2023/12/01 02:55:21;;;;;;;63.72;27.48;;;;;;;-2.11;100.00;100404.25;6194667;23;20548;-88
2023/12/01 02:57:56;;;;;;;60.28;25.75;;;;;;;-2.02;100.00;100415.91;6245472;23;20417;-88
2023/12/01 03:00:37;;;;;;;56.38;25.77;;;;;;;-3.01;100.00;100264.25;6244056;23;20008;-89
2023/12/01 03:03:08;;;;;;;61.85;25.92;;;;;;;-1.39;100.00;100532.03;6245913;23;20000;-88
2023/12/01 03:05:52;;;;;;;62.90;27.05;;;;;;;-2.04;100.00;100420.16;6244095;23;20322;-88
2023/12/01 03:08:21;;;;;;;64.50;26.80;;;;;;;-1.40;100.00;100514.31;6244680;23;20015;-88
2023/12/01 03:10:46;;;;;;;65.00;27.33;;;;;;;-1.32;100.00;100520.09;6244256;23;20009;-89
2023/12/01 03:13:12;;;;;;;66.38;26.80;;;;;;;-1.58;100.00;100478.34;6218900;23;20338;-88
2023/12/01 03:15:37;;;;;;;60.83;25.35;;;;;;;-2.22;100.00;100372.44;6244204;23;20054;-89
2023/12/01 03:18:09;;;;;;;66.18;26.83;;;;;;;-2.30;100.00;100349.81;6244485;23;20008;-88
2023/12/01 03:20:39;;;;;;;;;;;;;;;-1.20;100.00;100522.38;6244683;23;20004;-89
2023/12/01 03:23:07;;;;;;;68.65;26.27;;;;;;;-2.18;100.00;100372.34;6245690;23;19908;-89
2023/12/01 03:25:38;;;;;;;68.13;27.73;;;;;;;-2.32;100.00;100359.94;6219019;23;20079;-88
2023/12/01 03:28:16;;;;;;;68.63;26.08;;;;;;;-2.00;100.00;100416.72;6244040;23;20004;-90
2023/12/01 03:30:59;;;;;;;75.35;27.08;;;;;;;-2.04;100.00;100421.00;6245822;23;20440;-88
2023/12/01 03:33:25;;;;;;;71.07;28.55;;;;;;;-2.25;100.00;100397.78;6245556;22;20004;-87
2023/12/01 03:35:50;;;;;;;78.55;29.08;;;;;;;-3.06;100.00;100257.63;6245434;23;20075;-88
2023/12/01 03:38:28;;;;;;;74.25;28.40;;;;;;;-3.06;100.00;100262.66;6218956;23;20007;-88
2023/12/01 03:40:55;;;;;;;75.85;27.88;;;;;;;-3.01;100.00;100255.84;6245784;23;20026;-89
2023/12/01 03:43:24;;;;;;;70.63;27.88;;;;;;;-3.06;100.00;100276.13;6245499;23;20001;-89
2023/12/01 03:45:49;;;;;;;67.90;26.17;;;;;;;-3.10;100.00;100289.66;6219271;23;20004;-86
2023/12/01 03:48:15;;;;;;;67.75;26.30;;;;;;;-2.15;100.00;100454.94;6212196;23;20432;-88
2023/12/01 03:50:50;;;;;;;70.35;26.98;;;;;;;-2.17;100.00;100460.00;6187378;23;20067;-88
2023/12/01 03:53:15;;;;;;;69.05;26.77;;;;;;;-2.35;100.00;100430.00;6187234;23;20009;-88
2023/12/01 03:55:49;;;;;;;63.67;26.00;;;;;;;-3.17;100.00;100288.91;6216214;23;20086;-88
2023/12/01 03:58:24;;;;;;;69.75;26.38;;;;;;;-2.74;100.00;100380.91;6242437;23;20095;-88
2023/12/01 04:01:05;;;;;;;69.88;25.67;;;;;;;-1.63;100.00;100558.63;6217147;23;20101;-88
2023/12/01 04:06:01;;;;;;;68.43;25.45;;;;;;;-2.40;100.00;100425.00;6244682;22;20024;-88
2023/12/01 04:08:31;;;;;;;65.88;24.98;;;;;;;-3.05;100.00;100324.94;6243921;23;20086;-88
2023/12/01 04:11:06;;;;;;;67.13;25.52;;;;;;;-3.41;100.00;100253.13;6245293;23;20007;-87
2023/12/01 04:13:41;;;;;;;71.75;24.10;;;;;;;-1.96;100.00;100508.59;6244997;23;20004;-88
2023/12/01 04:16:24;;;;;;;63.53;24.38;;;;;;;-2.25;100.00;100441.63;6245007;23;20024;-88
2023/12/01 04:18:59;;;;;;;63.85;24.08;;;;;;;-2.61;100.00;100373.09;6244306;23;20000;-88
2023/12/01 04:21:33;;;;;;;73.68;27.27;;;;;;;-1.50;100.00;100572.75;6243799;23;20434;-88
2023/12/01 04:24:08;;;;;;;70.45;26.95;;;;;;;-2.71;100.00;100381.69;6244182;23;20357;-88
2023/12/01 04:26:48;;;;;;;70.65;26.42;;;;;;;-3.18;100.00;100304.09;6245681;23;20501;-88
2023/12/01 04:29:13;;;;;;;66.45;25.92;;;;;;;-3.40;100.00;100280.88;6245434;23;20079;-87
2023/12/01 04:31:39;;;;;;;67.40;25.23;;;;;;;-2.69;100.00;100414.50;6245082;23;20024;-88
2023/12/01 04:34:26;;;;;;;70.13;26.33;;;;;;;-2.75;100.00;100407.00;6243262;23;19996;-88
2023/12/01 04:36:57;;;;;;;70.13;26.15;;;;;;;-3.00;100.00;100366.97;6245230;23;20000;-88
2023/12/01 04:39:29;;;;;;;;;;;;;;;-1.70;100.00;100577.31;6244047;23;20433;-88
2023/12/01 04:41:58;;;;;;;72.20;27.42;;;;;;;-2.65;100.00;100427.09;6245092;23;19907;-87
2023/12/01 04:44:27;;;;;;;76.05;28.67;;;;;;;-2.67;100.00;100427.94;6245210;23;20055;-88
2023/12/01 04:46:52;;;;;;;77.38;30.88;;;;;;;-3.32;100.00;100328.72;6244939;23;20075;-88
2023/12/01 04:49:20;;;;;;;80.38;31.17;;;;;;;-3.00;100.00;100374.53;6246883;23;20103;-88
2023/12/01 04:51:46;;;;;;;82.80;30.25;;;;;;;-3.17;100.00;100333.53;6220011;23;20361;-88
2023/12/01 04:54:17;;;;;;;80.10;30.65;;;;;;;-3.14;100.00;100328.47;6246844;23;20007;-87
2023/12/01 04:56:46;;;;;;;;;;;;;;;-1.43;100.00;100596.28;6220951;23;20003;-89
2023/12/01 04:59:24;;;;;;;80.72;30.70;;;;;;;-3.06;100.00;100346.00;6246317;23;19911;-87
2023/12/01 05:01:55;;;;;;;85.30;31.02;;;;;;;-3.08;100.00;100337.63;6194763;23;20012;-88
2023/12/01 05:04:20;;;;;;;87.97;30.15;;;;;;;-3.08;100.00;100337.63;6253862;22;20057;-88
2023/12/01 05:06:58;;;;;;;79.40;31.02;;;;;;;-3.07;100.00;100332.53;6277560;22;20012;-88
2023/12/01 05:09:27;;;;;;;86.30;32.47;;;;;;;-3.29;100.00;100303.44;6277643;22;20008;-88
2023/12/01 05:11:52;;;;;;;82.60;31.75;;;;;;;-2.97;100.00;100369.44;6277353;22;20027;-88
2023/12/01 05:14:36;;;;;;;82.78;32.67;;;;;;;-3.13;100.00;100331.81;6276936;22;20433;-88
2023/12/01 05:17:02;;;;;;;85.63;33.40;;;;;;;-2.64;100.00;100407.69;6250158;22;20000;-88
2023/12/01 05:19:27;;;;;;;78.80;32.92;;;;;;;-3.04;100.00;100345.16;6276161;22;20015;-88
2023/12/01 05:21:53;;;;;;;92.40;33.28;;;;;;;-2.36;100.00;100458.63;6275633;22;20031;-87
2023/12/01 05:24:36;;;;;;;81.00;31.95;;;;;;;-1.30;100.00;100629.81;6277400;22;20000;-87
2023/12/01 05:27:07;;;;;;;81.82;33.80;;;;;;;-3.02;100.00;100345.13;6277137;22;20003;-86
2023/12/01 05:29:48;;;;;;;75.47;32.08;;;;;;;-2.91;100.00;100371.88;6275906;22;20000;-87
2023/12/01 05:32:13;;;;;;;72.35;31.52;;;;;;;-2.91;100.00;100363.47;6275503;22;20008;-87
2023/12/01 05:34:48;;;;;;;81.97;32.47;;;;;;;-2.28;100.00;100445.88;6277157;22;20347;-87
2023/12/01 05:37:13;;;;;;;75.85;32.03;;;;;;;-1.58;100.00;100566.13;6277346;22;20026;-87
2023/12/01 05:39:47;;;;;;;71.38;30.83;;;;;;;-1.11;100.00;100635.38;6276878;22;20004;-89
2023/12/01 05:42:18;;;;;;;63.63;30.77;;;;;;;-2.80;100.00;100366.66;6277253;22;20034;-86
2023/12/01 05:44:49;;;;;;;65.03;29.77;;;;;;;-2.39;100.00;100446.06;6276800;22;20003;-86
2023/12/01 05:47:18;;;;;;;64.70;31.58;;;;;;;-2.58;100.00;100411.81;6277277;22;20058;-86
2023/12/01 05:49:43;;;;;;;69.22;31.88;;;;;;;-2.65;100.00;100395.94;6277198;22;19996;-87
2023/12/01 05:52:15;;;;;;;62.22;29.10;;;;;;;-2.58;100.00;100417.69;6276851;22;20000;-87
2023/12/01 05:54:44;;;;;;;65.75;29.63;;;;;;;-2.90;100.00;100349.97;6277211;22;20011;-87
2023/12/01 05:57:19;;;;;;;63.08;29.05;;;;;;;-2.66;100.00;100384.94;6277262;22;20004;-87
2023/12/01 05:59:54;;;;;;;60.83;29.17;;;;;;;-1.65;100.00;100551.94;6274644;22;20049;-86
2023/12/01 06:02:19;;;;;;;61.08;28.27;;;;;;;-1.50;100.00;100593.00;6275697;22;20004;-88
2023/12/01 06:04:57;;;;;;;54.85;28.85;;;;;;;-2.71;100.00;100384.22;6275191;22;20019;-88
2023/12/01 06:07:32;;;;;;;62.28;30.38;;;;;;;-2.70;100.00;100378.28;6248770;22;20004;-88
2023/12/01 06:10:22;;;;;;;57.63;28.60;;;;;;;-0.99;100.00;100657.97;6250494;22;20004;-86
2023/12/01 06:12:58;;;;;;;56.30;28.67;;;;;;;-2.61;100.00;100393.31;6277026;22;20003;-86
2023/12/01 06:15:41;;;;;;;62.65;29.52;;;;;;;-1.08;100.00;100668.25;6275368;22;20008;-89
2023/12/01 06:18:06;;;;;;;55.97;28.83;;;;;;;-2.34;100.00;100456.94;6275374;22;20008;-87
2023/12/01 06:20:44;;;;;;;64.00;30.80;;;;;;;-1.07;100.00;100660.66;6276953;22;20409;-87
2023/12/01 06:23:10;;;;;;;59.35;29.92;;;;;;;-1.28;100.00;100628.06;6276568;22;20429;-88
2023/12/01 06:25:38;;;;;;;60.92;30.10;;;;;;;-2.27;100.00;100467.78;6276702;22;19999;-87
2023/12/01 06:28:11;;;;;;;61.25;29.42;;;;;;;-2.69;100.00;100390.06;6250595;22;20000;-90
2023/12/01 06:30:37;;;;;;;62.47;29.35;;;;;;;-2.18;100.00;100476.03;6276497;22;20004;-88
2023/12/01 06:33:14;;;;;;;59.70;27.83;;;;;;;-2.23;100.00;100459.28;6276801;22;19999;-87
2023/12/01 06:35:52;;;;;;;61.17;28.92;;;;;;;-2.52;100.00;100404.13;6276805;22;20358;-90
2023/12/01 06:38:17;;;;;;;59.75;27.30;;;;;;;-1.61;100.00;100551.00;6276581;22;20396;-90
2023/12/01 06:40:43;;;;;;;58.03;28.35;;;;;;;-1.48;100.00;100563.41;6276313;22;20031;-88
2023/12/01 06:43:21;;;;;;;55.13;26.17;;;;;;;-1.57;100.00;100558.53;6250107;22;20003;-90
2023/12/01 06:45:46;;;;;;;54.80;26.95;;;;;;;-2.10;100.00;100468.34;6276508;22;20027;-87
2023/12/01 06:48:15;;;;;;;58.22;28.75;;;;;;;-1.38;100.00;100591.94;6274983;22;20087;-89
2023/12/01 06:50:47;;;;;;;53.03;25.90;;;;;;;-0.91;100.00;100667.09;6249247;22;20333;-90
2023/12/01 06:53:33;;;;;;;58.33;28.35;;;;;;;-0.87;100.00;100668.72;6276685;22;20042;-89
2023/12/01 06:56:08;;;;;;;60.65;29.17;;;;;;;-2.47;100.00;100407.41;6276504;22;20007;-87
2023/12/01 06:58:48;;;;;;;66.70;29.92;;;;;;;-1.42;100.00;100592.88;6249297;22;20325;-88
2023/12/01 07:01:30;;;;;;;61.75;29.83;;;;;;;-2.20;100.00;100455.00;6276422;22;20441;-88
2023/12/01 07:04:14;;;;;;;62.58;28.85;;;;;;;-2.02;100.00;100489.28;6273742;22;20002;-88
2023/12/01 07:06:48;;;;;;;57.70;27.90;;;;;;;-2.46;100.00;100398.97;6277302;22;20030;-89
2023/12/01 07:09:17;;;;;;;56.58;27.42;;;;;;;-1.50;100.00;100572.75;6247591;22;20050;-85
2023/12/01 07:11:51;;;;;;;56.85;28.10;;;;;;;-1.98;100.00;100483.28;6212119;23;20005;-85
2023/12/01 07:14:26;;;;;;;56.65;27.33;;;;;;;-1.52;100.00;100566.88;6187603;23;20011;-87
2023/12/01 07:16:52;;;;;;;54.55;26.08;;;;;;;-1.25;100.00;100602.72;6187776;23;20070;-88
2023/12/01 07:19:17;;;;;;;56.90;27.70;;;;;;;-1.08;100.00;100638.72;6235664;22;20028;-86
2023/12/01 07:21:45;;;;;;;50.35;25.05;;;;;;;-1.82;100.00;100529.44;6249575;22;20472;-87
2023/12/01 07:24:10;;;;;;;53.10;25.80;;;;;;;-1.45;100.00;100583.63;6246158;23;20000;-82
2023/12/01 07:26:51;;;;;;;55.72;26.23;;;;;;;-2.00;100.00;100487.56;6243652;23;20007;-89
2023/12/01 07:29:51;;;;;;;57.05;27.17;;;;;;;-0.60;100.00;100702.00;6225716;22;20033;-87
2023/12/01 07:34:59;;;;;;;53.45;24.80;;;;;;;-0.63;100.00;100699.53;6267972;22;20023;-84
2023/12/01 07:37:30;;;;;;;51.53;25.52;;;;;;;-0.57;100.00;100706.22;6276167;22;20061;-86
2023/12/01 07:40:12;;;;;;;54.55;24.80;;;;;;;-2.22;100.00;100436.50;6276343;22;20087;-85
2023/12/01 07:42:39;;;;;;;50.28;24.75;;;;;;;-1.40;100.00;100564.97;6274379;22;20372;-84
2023/12/01 07:48:36;;;;;;;;;;;;;;;-0.51;100.00;100706.06;6123560;23;20009;-84
2023/12/01 07:51:03;;;;;;;48.33;23.30;;;;;;;-1.70;100.00;100516.56;6123392;23;19912;-82
2023/12/01 07:53:34;;;;;;;52.40;24.58;;;;;;;-2.08;100.00;100457.31;6123171;23;20012;-84
2023/12/01 07:56:06;;;;;;;47.63;23.08;;;;;;;-1.64;100.00;100529.13;6123472;23;20016;-83
2023/12/01 07:58:34;;;;;;;47.92;22.40;;;;;;;-1.52;100.00;100561.81;6122839;23;20009;-83
2023/12/01 08:00:59;;;;;;;46.10;22.88;;;;;;;-1.14;100.00;100610.94;6123101;23;20436;-85
2023/12/01 08:03:25;;;;;;;45.00;22.20;;;;;;;-1.41;100.00;100569.22;6122876;23;20002;-85
2023/12/01 08:05:59;;;;;;;46.58;21.70;;;;;;;-1.10;100.00;100622.69;6121455;23;20006;-86
2023/12/01 08:08:36;;;;;;;46.13;21.75;;;;;;;-2.16;100.00;100450.75;6122662;23;20006;-86
2023/12/01 08:11:19;;;;;;;47.15;22.20;;;;;;;-1.65;100.00;100535.03;6099002;23;20013;-84
2023/12/01 08:13:56;;;;;;;39.08;19.73;;;;;;;-2.31;100.00;100422.31;6099045;23;20029;-83
2023/12/01 08:16:57;;;;;;;40.17;20.27;;;;;;;-0.54;100.00;100713.75;6122847;23;20006;-83
2023/12/01 08:19:22;;;;;;;41.08;19.70;;;;;;;-1.80;100.00;100508.28;6122769;23;20487;-82
2023/12/01 08:22:00;;;;;;;36.33;18.05;;;;;;;-1.18;100.00;100612.72;6122970;23;20044;-84
2023/12/01 08:24:32;;;;;;;36.30;18.25;;;;;;;-2.13;100.00;100461.63;6163655;22;20065;-83
2023/12/01 08:27:04;;;;;;;39.60;18.27;;;;;;;-2.19;100.00;100451.63;6276087;22;20003;-86
2023/12/01 08:29:29;;;;;;;39.25;17.85;;;;;;;-0.71;100.00;100699.69;6275263;22;20006;-82
2023/12/01 08:32:04;;;;;;;34.00;16.75;;;;;;;-0.47;100.00;100733.91;6223269;22;19995;-86
2023/12/01 08:34:30;;;;;;;32.50;16.60;;;;;;;-1.63;100.00;100535.84;6275343;22;20417;-83
2023/12/01 08:36:55;;;;;;;28.65;16.00;;;;;;;-1.25;100.00;100595.94;6275901;22;20007;-83
2023/12/01 08:39:20;;;;;;;30.83;16.35;;;;;;;-1.47;100.00;100570.16;6275999;22;20031;-86
2023/12/01 08:41:46;;;;;;;31.67;16.10;;;;;;;-1.14;100.00;100613.47;6273557;22;20003;-85
2023/12/01 08:44:11;;;;;;;31.30;16.10;;;;;;;-1.56;100.00;100557.69;6275540;22;20414;-84
2023/12/01 08:46:36;;;;;;;30.75;15.30;;;;;;;-0.63;100.00;100718.13;6275760;22;20003;-83
2023/12/01 08:49:11;;;;;;;29.58;15.50;;;;;;;-1.58;100.00;100553.47;6275340;22;20003;-83
2023/12/01 08:51:36;;;;;;;28.85;14.45;;;;;;;-0.47;100.00;100738.97;6275511;22;20079;-85
2023/12/01 08:54:02;;;;;;;28.45;14.52;;;;;;;-0.54;100.00;100721.38;6275637;22;20089;-86
2023/12/01 08:56:42;;;;;;;27.20;14.35;;;;;;;-1.69;100.00;100543.53;6248901;22;20003;-87
2023/12/01 08:59:13;;;;;;;27.55;14.90;;;;;;;-1.52;100.00;100571.09;6275444;22;20417;-89
2023/12/01 09:01:44;;;;;;;27.33;14.88;;;;;;;-2.02;100.00;100472.41;6275740;22;19999;-91
2023/12/01 09:04:10;;;;;;;28.83;14.60;;;;;;;-1.26;100.00;100598.50;6274649;22;20436;-84
2023/12/01 09:06:50;;;;;;;28.42;14.73;;;;;;;-1.53;100.00;100550.00;6275002;22;20012;-83
2023/12/01 09:09:34;;;;;;;27.63;14.00;;;;;;;-0.36;100.00;100752.28;6274852;22;20007;-88
2023/12/01 09:12:03;;;;;;;27.48;15.05;;;;;;;-1.18;100.00;100625.38;6258607;22;20027;-87
2023/12/01 09:18:07;;;;;;;30.75;14.88;;;;;;;-0.82;100.00;100678.78;6245974;22;20031;-85
2023/12/01 09:23:32;;;;;;;26.73;14.15;;;;;;;-1.69;100.00;100566.31;6245812;22;20044;-94
2023/12/01 09:25:57;;;;;;;28.20;14.25;;;;;;;-1.51;100.00;100591.34;6247336;22;20013;-89
2023/12/01 09:28:29;;;;;;;29.02;15.55;;;;;;;-1.12;100.00;100649.75;6246063;23;20015;-92
2023/12/01 09:33:35;;;;;;;26.52;13.90;;;;;;;-1.94;100.00;100510.22;6184501;23;19919;-91
2023/12/01 09:36:07;;;;;;;26.67;13.73;;;;;;;-1.25;100.00;100610.31;6186665;23;20019;-92
2023/12/01 09:41:07;;;;;;;26.95;14.70;;;;;;;-0.78;100.00;100688.00;6249801;22;20035;-88
2023/12/01 09:46:16;;;;;;;27.15;14.95;;;;;;;-1.37;100.00;100570.84;6232477;22;20037;-91
2023/12/01 09:48:46;;;;;;;27.30;14.43;;;;;;;0.03;100.00;100800.59;6216129;23;20013;-91
2023/12/01 09:51:23;;;;;;;27.38;14.40;;;;;;;-1.40;100.00;100565.81;6217754;23;20007;-89
2023/12/01 09:53:49;;;;;;;27.45;14.80;;;;;;;-0.93;100.00;100642.66;6218666;23;20426;-86
2023/12/01 09:56:26;;;;;;;24.55;13.18;;;;;;;-1.51;100.00;100549.97;6216578;23;20053;-92
2023/12/01 09:58:57;;;;;;;26.40;13.95;;;;;;;-0.18;100.00;100763.78;6216269;23;20448;-88
2023/12/01 10:01:26;;;;;;;;;;;;;;;0.19;100.00;100804.47;6238503;22;20020;-88
2023/12/01 10:03:52;;;;;;;28.83;14.13;;;;;;;-1.24;100.00;100582.41;6235436;22;19977;-88
2023/12/01 10:06:17;;;;;;;25.73;14.68;;;;;;;-0.85;100.00;100635.75;6153451;23;20057;-82
2023/12/01 10:08:44;;;;;;;26.73;13.45;;;;;;;0.24;100.00;100814.56;6152698;23;20336;-85
2023/12/01 10:14:12;;;;;;;26.30;14.05;;;;;;;-0.28;100.00;100728.47;6246422;22;20020;-87
2023/12/01 10:16:38;;;;;;;25.83;13.63;;;;;;;-0.87;100.00;100622.28;6246770;23;20004;-86
2023/12/01 10:19:04;;;;;;;29.85;15.00;;;;;;;-0.17;100.00;100754.47;6245054;23;20008;-92
2023/12/01 10:22:16;;;;;;;27.15;14.10;;;;;;;-0.76;100.00;100655.84;6247452;23;20004;-90
2023/12/01 10:24:56;;;;;;;26.20;14.27;;;;;;;0.17;100.00;100818.91;6162249;23;20017;-89
2023/12/01 10:27:32;;;;;;;28.13;14.93;;;;;;;-1.57;100.00;100528.16;6246844;23;20319;-86
2023/12/01 10:30:49;;;;;;;27.67;14.80;;;;;;;-0.93;100.00;100635.03;6270794;22;20849;-90
2023/12/01 10:33:14;;;;;;;31.02;15.50;;;;;;;-0.57;100.00;100685.94;6123858;23;20014;-89
2023/12/01 10:35:58;;;;;;;27.85;14.93;;;;;;;-0.05;100.00;100765.22;6099384;23;20969;-85
2023/12/01 10:38:31;;;;;;;28.45;14.90;;;;;;;-0.48;100.00;100706.88;6099195;23;20014;-90
2023/12/01 10:41:17;;;;;;;27.50;14.93;;;;;;;0.21;100.00;100800.22;6124347;23;20010;-87
2023/12/01 10:43:55;;;;;;;30.20;16.05;;;;;;;0.14;100.00;100808.81;6180080;22;20135;-87
2023/12/01 10:49:34;;;;;;;30.30;16.13;;;;;;;0.10;100.00;100812.31;6254068;22;20024;31
2023/12/01 10:52:15;;;;;;;30.98;15.23;;;;;;;-0.93;100.00;100651.09;6153942;23;20009;-85
2023/12/01 10:54:43;;;;;;;31.48;15.88;;;;;;;-0.87;100.00;100673.81;6159303;23;20012;-86
2023/12/01 11:00:29;;;;;;;30.77;16.08;;;;;;;-0.11;100.00;100790.69;6273211;22;20062;-86
2023/12/01 11:02:56;;;;;;;28.98;15.57;;;;;;;-1.48;100.00;100549.91;6276150;22;20388;-88
2023/12/01 11:13:06;;;;;;;25.75;13.95;;;;;;;0.08;100.00;100798.78;6240954;23;20358;-91
2023/12/01 11:16:07;;;;;;;27.52;14.80;;;;;;;-1.58;100.00;100548.41;6245930;22;20034;-87
2023/12/01 11:18:38;;;;;;;25.95;13.75;;;;;;;0.05;100.00;100808.19;6244667;23;20003;-89
2023/12/01 11:21:19;;;;;;;24.83;13.55;;;;;;;-1.54;100.00;100517.97;6245885;22;20008;-92
2023/12/01 11:23:51;;;;;;;28.60;14.23;;;;;;;-1.31;100.00;100552.16;6231153;22;20457;-89
2023/12/01 11:31:50;;;;;;;24.70;13.18;;;;;;;-0.29;100.00;100714.97;6264949;22;20069;-89
2023/12/01 11:34:30;;;;;;;27.83;14.25;;;;;;;-0.28;100.00;100710.72;6274979;22;20035;-88
2023/12/01 11:45:48;;;;;;;23.60;12.43;;;;;;;-0.53;100.00;100678.22;6245452;22;20028;-91
2023/12/01 11:48:20;;;;;;;24.13;13.38;;;;;;;-0.33;100.00;100715.88;6246187;22;20016;-90
2023/12/01 11:50:46;;;;;;;26.63;13.68;;;;;;;0.03;100.00;100767.59;6248659;22;20039;-90
2023/12/01 11:53:16;;;;;;;24.17;12.88;;;;;;;-0.28;100.00;100719.16;6232739;22;20031;-92
2023/12/01 11:55:57;;;;;;;26.05;13.85;;;;;;;-1.37;100.00;100547.22;6245302;23;20058;-92
2023/12/01 11:58:24;;;;;;;23.95;12.98;;;;;;;-0.90;100.00;100640.88;6246870;22;20027;-91
2023/12/01 12:01:05;;;;;;;24.58;13.68;;;;;;;-1.29;100.00;100565.63;6246014;23;20012;-90
2023/12/01 12:03:30;;;;;;;23.90;13.23;;;;;;;-0.67;100.00;100673.44;6246805;22;20027;-90
2023/12/01 12:05:55;;;;;;;24.67;12.77;;;;;;;-0.91;100.00;100635.84;6246371;22;20234;-88
2023/12/01 12:08:25;;;;;;;22.95;12.57;;;;;;;0.10;100.00;100801.28;6246705;22;20004;-90
2023/12/01 12:11:11;;;;;;;23.67;12.98;;;;;;;-0.53;100.00;100715.44;6246139;22;20004;-90
2023/12/01 12:13:42;;;;;;;25.63;13.68;;;;;;;-0.55;100.00;100740.00;6228185;22;20027;-89
2023/12/01 12:16:08;;;;;;;;;;;;;;;0.05;100.00;100829.31;6216396;23;20079;-90
2023/12/01 12:18:34;;;;;;;24.58;13.50;;;;;;;-0.36;100.00;100781.91;6216691;23;20385;-90
2023/12/01 12:21:12;;;;;;;24.98;13.10;;;;;;;-1.61;100.00;100566.19;6215204;23;20020;-93
2023/12/01 12:23:37;;;;;;;23.75;13.20;;;;;;;0.06;100.00;100846.22;6216953;23;20009;-91
2023/12/01 12:58:38;;;;;;;23.92;12.40;;;;;;;0.18;100.00;100845.13;6232520;22;20397;-90